Time,TemperatureF,DewpointF,PressureIn,WindDirection,WindDirectionDegrees,WindSpeedMPH,WindSpeedGustMPH,Humidity,HourlyPrecipIn,Conditions,Clouds,dailyrainin,SoftwareType,DateUTC
2015-08-28 00:13:00,64.0,51.0,29.96,NNW,339,0.0,-999.0,63,-99.99,,,0.00,weatherlink.com 1.10,2015-08-28 07:13:00,
2015-08-28 00:28:00,64.3,50.0,29.96,NNW,344,0.0,-999.0,60,-99.99,,,0.00,weatherlink.com 1.10,2015-08-28 07:28:00,
2015-08-28 00:43:00,65.2,50.0,29.96,NE,48,0.0,-999.0,59,-99.99,,,0.00,weatherlink.com 1.10,2015-08-28 07:43:00,
2015-08-28 00:58:00,65.3,50.0,29.96,NE,48,0.0,-999.0,58,-99.99,,,0.00,weatherlink.com 1.10,2015-08-28 07:58:00,
2015-08-28 01:13:00,65.2,51.0,29.96,NE,48,0.0,-999.0,61,-99.99,,,0.00,weatherlink.com 1.10,2015-08-28 08:13:00,
2015-08-28 01:28:00,64.0,51.0,29.95,NE,48,0.0,-999.0,63,-99.99,,,0.00,weatherlink.com 1.10,2015-08-28 08:28:00,
2015-08-28 01:43:00,63.1,51.0,29.96,NE,48,0.0,-999.0,64,-99.99,,,0.00,weatherlink.com 1.10,2015-08-28 08:43:00,
2015-08-28 01:58:00,62.7,51.0,29.95,NE,48,0.0,-999.0,65,-99.99,,,0.00,weatherlink.com 1.10,2015-08-28 08:58:00,
2015-08-28 02:13:00,62.0,52.0,29.95,NE,48,1.0,-999.0,69,-99.99,,,0.00,weatherlink.com 1.10,2015-08-28 09:13:00,
2015-08-28 02:28:00,61.5,51.0,29.94,NE,48,0.0,-999.0,69,-99.99,,,0.00,weatherlink.com 1.10,2015-08-28 09:28:00,
2015-08-28 02:43:00,61.5,51.0,29.93,NE,48,0.0,-999.0,69,-99.99,,,0.00,weatherlink.com 1.10,2015-08-28 09:43:00,
2015-08-28 02:58:00,61.5,51.0,29.92,NE,48,0.0,-999.0,69,-99.99,,,0.00,weatherlink.com 1.10,2015-08-28 09:58:00,
2015-08-28 03:13:00,61.0,51.0,29.92,NE,48,0.0,-999.0,70,-99.99,,,0.00,weatherlink.com 1.10,2015-08-28 10:13:00,
2015-08-28 03:28:00,60.9,51.0,29.93,NE,48,0.0,-999.0,70,-99.99,,,0.00,weatherlink.com 1.10,2015-08-28 10:28:00,
2015-08-28 03:43:00,60.9,51.0,29.93,NE,48,0.0,-999.0,69,-99.99,,,0.00,weatherlink.com 1.10,2015-08-28 10:43:00,
2015-08-28 03:58:00,60.2,51.0,29.92,NE,48,0.0,-999.0,71,-99.99,,,0.00,weatherlink.com 1.10,2015-08-28 10:58:00,
2015-08-28 04:13:00,60.4,51.0,29.91,NE,48,0.0,-999.0,71,-99.99,,,0.00,weatherlink.com 1.10,2015-08-28 11:13:00,
2015-08-28 04:29:00,59.9,50.0,29.91,NE,48,0.0,-999.0,71,-99.99,,,0.00,weatherlink.com 1.10,2015-08-28 11:29:00,
2015-08-28 04:44:00,59.8,51.0,29.91,NE,48,0.0,-999.0,72,-99.99,,,0.00,weatherlink.com 1.10,2015-08-28 11:44:00,
2015-08-28 04:59:00,59.6,52.0,29.90,NNE,20,1.0,-999.0,75,-99.99,,,0.00,weatherlink.com 1.10,2015-08-28 11:59:00,
2015-08-28 05:14:00,59.3,51.0,29.90,NNE,20,0.0,-999.0,74,-99.99,,,0.00,weatherlink.com 1.10,2015-08-28 12:14:00,
2015-08-28 05:29:00,59.6,51.0,29.90,NNE,20,0.0,-999.0,73,-99.99,,,0.00,weatherlink.com 1.10,2015-08-28 12:29:00,
2015-08-28 05:44:00,59.2,51.0,29.90,NNE,20,0.0,-999.0,75,-99.99,,,0.00,weatherlink.com 1.10,2015-08-28 12:44:00,
2015-08-28 05:59:00,58.9,51.0,29.90,NNE,20,0.0,-999.0,75,-99.99,,,0.00,weatherlink.com 1.10,2015-08-28 12:59:00,
2015-08-28 06:14:00,58.4,51.0,29.89,NNE,20,0.0,-999.0,76,-99.99,,,0.00,weatherlink.com 1.10,2015-08-28 13:14:00,
2015-08-28 06:29:00,58.3,51.0,29.90,NNE,20,0.0,-999.0,77,-99.99,,,0.00,weatherlink.com 1.10,2015-08-28 13:29:00,
2015-08-28 06:44:00,58.7,52.0,29.89,NNE,20,0.0,-999.0,78,-99.99,,,0.00,weatherlink.com 1.10,2015-08-28 13:44:00,
2015-08-28 06:59:00,59.2,52.0,29.88,NNE,20,0.0,-999.0,76,-99.99,,,0.00,weatherlink.com 1.10,2015-08-28 13:59:00,
2015-08-28 07:14:00,58.6,51.0,29.86,NW,313,0.0,-999.0,76,-99.99,,,0.00,weatherlink.com 1.10,2015-08-28 14:14:00,
2015-08-28 07:29:00,59.2,52.0,29.86,NW,313,0.0,-999.0,76,-99.99,,,0.00,weatherlink.com 1.10,2015-08-28 14:29:00,
2015-08-28 07:44:00,60.2,51.0,29.85,NW,313,0.0,-999.0,72,-99.99,,,0.00,weatherlink.com 1.10,2015-08-28 14:44:00,
2015-08-28 07:59:00,61.5,51.0,29.85,SE,140,1.0,-999.0,68,-99.99,,,0.00,weatherlink.com 1.10,2015-08-28 14:59:00,
2015-08-28 08:14:00,62.9,51.0,29.86,SE,141,1.0,-999.0,66,-99.99,,,0.00,weatherlink.com 1.10,2015-08-28 15:14:00,
2015-08-28 08:29:00,64.0,52.0,29.88,WNW,284,0.0,-999.0,65,-99.99,,,0.00,weatherlink.com 1.10,2015-08-28 15:29:00,
2015-08-28 08:44:00,64.7,53.0,29.88,WNW,284,0.0,-999.0,66,-99.99,,,0.00,weatherlink.com 1.10,2015-08-28 15:44:00,
2015-08-28 08:59:00,65.2,53.0,29.87,WNW,284,0.0,-999.0,66,-99.99,,,0.00,weatherlink.com 1.10,2015-08-28 15:59:00,
2015-08-28 09:14:00,66.3,53.0,29.87,WNW,284,1.0,-999.0,63,-99.99,,,0.00,weatherlink.com 1.10,2015-08-28 16:14:00,
2015-08-28 09:29:00,68.1,54.0,29.86,NNW,336,0.0,-999.0,61,-99.99,,,0.00,weatherlink.com 1.10,2015-08-28 16:29:00,
2015-08-28 09:44:00,69.1,53.0,29.86,East,90,0.0,-999.0,57,-99.99,,,0.00,weatherlink.com 1.10,2015-08-28 16:44:00,
2015-08-28 09:59:00,69.6,54.0,29.85,East,84,0.0,-999.0,57,-99.99,,,0.00,weatherlink.com 1.10,2015-08-28 16:59:00,
2015-08-28 10:14:00,70.1,54.0,29.84,East,84,0.0,-999.0,57,-99.99,,,0.00,weatherlink.com 1.10,2015-08-28 17:14:00,
2015-08-28 10:29:00,70.6,54.0,29.83,WSW,240,1.0,-999.0,57,-99.99,,,0.00,weatherlink.com 1.10,2015-08-28 17:29:00,
2015-08-28 10:44:00,71.3,54.0,29.83,SSW,211,0.0,-999.0,55,-99.99,,,0.00,weatherlink.com 1.10,2015-08-28 17:44:00,
2015-08-28 10:59:00,72.3,54.0,29.82,SE,138,0.0,-999.0,53,-99.99,,,0.00,weatherlink.com 1.10,2015-08-28 17:59:00,
2015-08-28 11:14:00,73.2,54.0,29.82,SSE,148,0.0,-999.0,52,-99.99,,,0.00,weatherlink.com 1.10,2015-08-28 18:14:00,
2015-08-28 11:29:00,73.9,55.0,29.81,SSE,148,0.0,-999.0,52,-99.99,,,0.00,weatherlink.com 1.10,2015-08-28 18:29:00,
2015-08-28 11:44:00,74.9,56.0,29.80,SE,137,0.0,-999.0,52,-99.99,,,0.00,weatherlink.com 1.10,2015-08-28 18:44:00,
2015-08-28 11:59:00,75.8,54.0,29.81,WSW,252,0.0,-999.0,47,-99.99,,,0.00,weatherlink.com 1.10,2015-08-28 18:59:00,
2015-08-28 12:14:00,76.1,54.0,29.80,NNE,23,0.0,-999.0,47,-99.99,,,0.00,weatherlink.com 1.10,2015-08-28 19:14:00,
2015-08-28 12:29:00,77.0,55.0,29.80,NE,40,0.0,-999.0,46,-99.99,,,0.00,weatherlink.com 1.10,2015-08-28 19:29:00,
2015-08-28 12:44:00,77.7,55.0,29.79,WNW,294,3.0,-999.0,46,-99.99,,,0.00,weatherlink.com 1.10,2015-08-28 19:44:00,
2015-08-28 12:59:00,78.6,54.0,29.78,East,92,0.0,-999.0,43,-99.99,,,0.00,weatherlink.com 1.10,2015-08-28 19:59:00,
2015-08-28 13:14:00,79.4,55.0,29.77,East,80,0.0,-999.0,43,-99.99,,,0.00,weatherlink.com 1.10,2015-08-28 20:14:00,
2015-08-28 13:29:00,79.9,55.0,29.77,ENE,76,1.0,-999.0,43,-99.99,,,0.00,weatherlink.com 1.10,2015-08-28 20:29:00,
2015-08-28 13:44:00,80.7,55.0,29.75,ESE,104,0.0,-999.0,41,-99.99,,,0.00,weatherlink.com 1.10,2015-08-28 20:44:00,
2015-08-28 14:00:00,82.0,55.0,29.75,ESE,119,0.0,-999.0,39,-99.99,,,0.00,weatherlink.com 1.10,2015-08-28 21:00:00,
2015-08-28 14:15:00,81.6,54.0,29.74,ENE,69,2.0,-999.0,39,-99.99,,,0.00,weatherlink.com 1.10,2015-08-28 21:15:00,
2015-08-28 14:30:00,81.6,54.0,29.74,ENE,61,0.0,-999.0,39,-99.99,,,0.00,weatherlink.com 1.10,2015-08-28 21:30:00,
2015-08-28 14:45:00,83.2,54.0,29.72,East,94,0.0,-999.0,37,-99.99,,,0.00,weatherlink.com 1.10,2015-08-28 21:45:00,
2015-08-28 15:00:00,84.3,54.0,29.71,East,101,0.0,-999.0,35,-99.99,,,0.00,weatherlink.com 1.10,2015-08-28 22:00:00,
2015-08-28 15:15:00,85.5,54.0,29.70,East,82,1.0,-999.0,34,-99.99,,,0.00,weatherlink.com 1.10,2015-08-28 22:15:00,
2015-08-28 15:45:00,85.7,51.0,29.70,NNW,333,4.0,-999.0,30,-99.99,,,0.00,weatherlink.com 1.10,2015-08-28 22:45:00,